createdAt,value
2022-09-25T00:00:43.332Z,101631.75
2022-09-25T00:03:10.760Z,101654.13
2022-09-25T00:05:38.027Z,101664.50
2022-09-25T00:08:05.535Z,101676.06
2022-09-25T00:10:32.785Z,101673.34
2022-09-25T00:12:59.780Z,101676.34
2022-09-25T00:15:26.631Z,101652.47
2022-09-25T00:17:53.133Z,101661.38
2022-09-25T00:20:20.665Z,101669.28
2022-09-25T00:22:47.472Z,101691.38
2022-09-25T00:25:15.481Z,101673.88
2022-09-25T00:27:43.415Z,101697.94
2022-09-25T00:30:11.705Z,101695.88
2022-09-25T00:32:38.248Z,101682.38
2022-09-25T00:35:05.573Z,101694.81
2022-09-25T00:37:36.361Z,101677.19
2022-09-25T00:40:06.741Z,101701.06
2022-09-25T00:42:33.498Z,101666.53
2022-09-25T00:45:05.904Z,101688.50
2022-09-25T00:47:43.504Z,101664.38
2022-09-25T00:50:19.541Z,101669.41
2022-09-25T00:52:46.140Z,101674.06
2022-09-25T00:55:13.161Z,101695.06
2022-09-25T00:57:40.822Z,101683.31
2022-09-25T01:00:10.637Z,101685.66
2022-09-25T01:02:40.802Z,101690.00
2022-09-25T01:05:11.281Z,101670.66
2022-09-25T01:07:40.528Z,101677.34
2022-09-25T01:10:08.108Z,101673.94
2022-09-25T01:12:43.465Z,101676.38
2022-09-25T01:15:12.271Z,101677.75
2022-09-25T01:18:06.115Z,101682.94
2022-09-25T01:21:05.386Z,101686.47
2022-09-25T01:23:44.173Z,101680.06
2022-09-25T01:26:23.251Z,101677.75
2022-09-25T01:29:10.918Z,101677.59
2022-09-25T01:32:04.297Z,101672.72
2022-09-25T01:34:55.678Z,101677.34
2022-09-25T01:37:29.915Z,101681.44
2022-09-25T01:40:08.728Z,101660.84
2022-09-25T01:42:46.198Z,101657.56
2022-09-25T01:45:18.231Z,101658.38
2022-09-25T01:47:48.098Z,101665.91
2022-09-25T01:50:20.855Z,101682.25
2022-09-25T01:52:50.388Z,101671.34
2022-09-25T01:55:21.944Z,101685.38
2022-09-25T01:57:54.309Z,101670.50
2022-09-25T02:00:22.557Z,101680.91
2022-09-25T02:02:55.202Z,101662.91
2022-09-25T02:05:35.833Z,101661.81
2022-09-25T02:08:05.983Z,101680.34
2022-09-25T02:10:38.100Z,101661.25
2022-09-25T02:13:13.105Z,101672.44
2022-09-25T02:15:44.171Z,101659.88
2022-09-25T02:18:31.829Z,101673.94
2022-09-25T02:21:12.371Z,101673.53
2022-09-25T02:23:59.228Z,101649.28
2022-09-25T02:26:30.215Z,101655.25
2022-09-25T02:28:57.188Z,101682.78
2022-09-25T02:31:29.665Z,101680.06
2022-09-25T02:33:56.104Z,101676.66
2022-09-25T02:36:24.074Z,101682.13
2022-09-25T02:38:52.009Z,101653.63
2022-09-25T02:41:33.557Z,101683.91
2022-09-25T02:44:35.165Z,101678.16
2022-09-25T02:47:24.766Z,101670.50
2022-09-25T02:49:55.478Z,101672.72
2022-09-25T02:52:27.962Z,101662.34
2022-09-25T02:55:05.329Z,101668.34
2022-09-25T02:57:34.677Z,101663.28
2022-09-25T03:00:07.153Z,101637.53
2022-09-25T03:02:35.343Z,101674.63
2022-09-25T03:05:02.576Z,101664.94
2022-09-25T03:07:28.979Z,101678.16
2022-09-25T03:09:56.928Z,101651.72
2022-09-25T03:12:23.379Z,101664.94
2022-09-25T03:14:49.740Z,101672.16
2022-09-25T03:17:17.556Z,101668.75
2022-09-25T03:19:43.958Z,101668.75
2022-09-25T03:22:10.326Z,101650.34
2022-09-25T03:24:38.390Z,101675.72
2022-09-25T03:27:04.749Z,101673.78
2022-09-25T03:29:31.134Z,101654.84
2022-09-25T03:31:57.648Z,101657.84
2022-09-25T03:34:24.013Z,101655.50
2022-09-25T03:36:50.365Z,101663.84
2022-09-25T03:39:17.887Z,101645.28
2022-09-25T03:41:45.119Z,101663.84
2022-09-25T03:44:11.600Z,101679.94
2022-09-25T03:46:38.387Z,101673.53
2022-09-25T03:49:05.440Z,101656.75
2022-09-25T03:51:32.605Z,101666.03
2022-09-25T03:53:59.128Z,101633.44
2022-09-25T03:56:28.854Z,101666.97
2022-09-25T03:58:55.839Z,101674.59
2022-09-25T04:01:23.476Z,101650.09
2022-09-25T04:03:50.468Z,101666.81
2022-09-25T04:06:18.629Z,101671.31
2022-09-25T04:08:46.428Z,101663.53
2022-09-25T04:11:12.913Z,101650.03
2022-09-25T04:13:41.841Z,101636.41
2022-09-25T04:16:08.508Z,101657.97
2022-09-25T04:18:35.459Z,101659.56
2022-09-25T04:21:04.203Z,101646.25
2022-09-25T04:23:30.577Z,101648.84
2022-09-25T04:25:57.225Z,101645.69
2022-09-25T04:28:23.665Z,101629.59
2022-09-25T04:30:50.470Z,101654.94
2022-09-25T04:33:36.410Z,101616.38
2022-09-25T04:36:03.554Z,101646.63
2022-09-25T04:38:32.783Z,101651.94
2022-09-25T04:41:00.141Z,101642.81
2022-09-25T04:43:29.306Z,101648.13
2022-09-25T04:45:55.998Z,101655.47
2022-09-25T04:48:22.414Z,101655.63
2022-09-25T04:50:50.877Z,101652.50
2022-09-25T04:53:17.807Z,101628.63
2022-09-25T04:55:45.310Z,101624.41
2022-09-25T04:58:11.770Z,101651.81
2022-09-25T05:00:39.307Z,101644.88
2022-09-25T05:03:05.783Z,101627.84
2022-09-25T05:05:32.334Z,101616.41
2022-09-25T05:08:00.381Z,101648.03
2022-09-25T05:10:29.810Z,101641.47
2022-09-25T05:13:00.431Z,101637.69
2022-09-25T05:15:28.940Z,101626.34
2022-09-25T05:18:07.456Z,101620.38
2022-09-25T05:20:37.034Z,101638.63
2022-09-25T05:23:04.263Z,101636.44
2022-09-25T05:25:31.653Z,101650.75
2022-09-25T05:27:59.284Z,101653.34
2022-09-25T05:30:26.982Z,101657.44
2022-09-25T05:32:53.999Z,101614.78
2022-09-25T05:35:22.624Z,101657.44
2022-09-25T05:37:48.987Z,101641.09
2022-09-25T05:40:16.072Z,101662.75
2022-09-25T05:42:44.081Z,101634.66
2022-09-25T05:45:11.897Z,101662.22
2022-09-25T05:47:39.121Z,101608.06
2022-09-25T05:50:05.919Z,101621.72
2022-09-25T05:52:32.447Z,101622.00
2022-09-25T05:54:58.815Z,101647.34
2022-09-25T05:57:25.168Z,101624.03
2022-09-25T05:59:51.534Z,101634.91
2022-09-25T06:02:17.942Z,101651.41
2022-09-25T06:04:44.372Z,101637.78
2022-09-25T06:07:10.812Z,101620.88
2022-09-25T06:09:37.172Z,101652.38
2022-09-25T06:12:03.772Z,101623.75
2022-09-25T06:14:30.351Z,101653.03
2022-09-25T06:16:58.135Z,101638.47
2022-09-25T06:19:24.521Z,101648.00
2022-09-25T06:21:50.906Z,101634.19
2022-09-25T06:24:17.302Z,101641.28
2022-09-25T06:26:43.737Z,101630.41
2022-09-25T06:29:10.136Z,101656.81
2022-09-25T06:31:36.575Z,101660.34
2022-09-25T06:34:03.009Z,101634.72
2022-09-25T06:36:29.401Z,101638.81
2022-09-25T06:38:55.993Z,101637.59
2022-09-25T06:41:23.159Z,101658.00
2022-09-25T06:43:50.271Z,101641.38
2022-09-25T06:46:18.212Z,101660.00
2022-09-25T06:48:44.846Z,101645.25
2022-09-25T06:51:11.205Z,101652.44
2022-09-25T06:53:37.573Z,101647.06
2022-09-25T06:56:04.371Z,101668.72
2022-09-25T06:58:31.268Z,101644.47
2022-09-25T07:00:57.694Z,101662.63
2022-09-25T07:03:43.013Z,101670.13
2022-09-25T07:06:20.900Z,101676.75
2022-09-25T07:08:50.712Z,101662.34
2022-09-25T07:11:18.476Z,101675.66
2022-09-25T07:13:44.907Z,101669.94
2022-09-25T07:16:17.071Z,101669.88
2022-09-25T07:18:44.280Z,101675.81
2022-09-25T07:21:13.103Z,101669.41
2022-09-25T07:23:41.748Z,101671.34
2022-09-25T07:26:13.560Z,101661.03
2022-09-25T07:28:40.905Z,101662.09
2022-09-25T07:31:12.426Z,101640.31
2022-09-25T07:33:38.894Z,101668.19
2022-09-25T07:36:05.397Z,101647.81
2022-09-25T07:38:31.874Z,101650.47
2022-09-25T07:40:58.448Z,101666.50
2022-09-25T07:43:24.842Z,101662.47
2022-09-25T07:45:54.176Z,101662.50
2022-09-25T07:48:23.953Z,101662.19
2022-09-25T07:50:50.387Z,101660.47
2022-09-25T07:53:20.052Z,101664.53
2022-09-25T07:55:46.836Z,101660.50
2022-09-25T07:58:14.525Z,101651.38
2022-09-25T08:00:40.881Z,101663.56
2022-09-25T08:03:08.613Z,101649.91
2022-09-25T08:05:35.052Z,101658.50
2022-09-25T08:08:01.637Z,101668.91
2022-09-25T08:10:28.017Z,101648.72
2022-09-25T08:12:54.382Z,101651.44
2022-09-25T08:15:20.813Z,101648.00
2022-09-25T08:17:47.185Z,101673.84
2022-09-25T08:20:13.647Z,101666.31
2022-09-25T08:22:40.056Z,101667.09
2022-09-25T08:25:06.778Z,101653.81
2022-09-25T08:27:39.555Z,101668.41
2022-09-25T08:30:10.571Z,101657.25
2022-09-25T08:32:37.200Z,101655.16
2022-09-25T08:35:04.636Z,101661.03
2022-09-25T08:37:32.069Z,101650.41
2022-09-25T08:40:01.705Z,101660.78
2022-09-25T08:42:31.035Z,101662.88
2022-09-25T08:45:22.440Z,101647.50
2022-09-25T08:48:10.202Z,101666.75
2022-09-25T08:50:37.366Z,101662.56
2022-09-25T08:53:10.084Z,101667.34
2022-09-25T08:55:59.661Z,101645.31
2022-09-25T08:58:29.638Z,101659.91
2022-09-25T09:01:01.078Z,101645.50
2022-09-25T09:03:30.432Z,101631.72
2022-09-25T09:06:08.590Z,101649.03
2022-09-25T09:08:36.709Z,101628.63
2022-09-25T09:11:12.719Z,101631.84
2022-09-25T09:13:46.065Z,101638.06
2022-09-25T09:16:21.943Z,101612.06
2022-09-25T09:18:48.454Z,101632.72
2022-09-25T09:21:25.503Z,101623.94
2022-09-25T09:23:58.413Z,101638.94
2022-09-25T09:26:38.135Z,101653.38
2022-09-25T09:29:48.895Z,101652.16
2022-09-25T09:33:02.748Z,101653.69
2022-09-25T09:35:47.583Z,101640.88
2022-09-25T09:38:29.824Z,101657.88
2022-09-25T09:41:02.196Z,101668.94
2022-09-25T09:43:43.707Z,101656.38
2022-09-25T09:46:40.209Z,101647.97
2022-09-25T09:49:12.812Z,101656.38
2022-09-25T09:51:43.517Z,101646.25
2022-09-25T09:54:48.388Z,101648.44
2022-09-25T09:57:22.689Z,101639.00
2022-09-25T09:59:54.085Z,101652.19
2022-09-25T10:02:29.466Z,101650.09
2022-09-25T10:04:56.579Z,101649.53
2022-09-25T10:07:23.763Z,101631.88
2022-09-25T10:09:50.817Z,101633.75
2022-09-25T10:12:33.745Z,101641.22
2022-09-25T10:15:03.951Z,101625.91
2022-09-25T10:17:30.793Z,101617.78
2022-09-25T10:20:00.893Z,101627.00
2022-09-25T10:22:30.024Z,101626.38
2022-09-25T10:25:05.246Z,101619.88
2022-09-25T10:27:32.895Z,101644.28
2022-09-25T10:30:24.198Z,101633.66
2022-09-25T10:33:13.893Z,101636.38
2022-09-25T10:35:45.856Z,101627.50
2022-09-25T10:38:34.562Z,101631.94
2022-09-25T10:41:08.029Z,101614.69
2022-09-25T10:43:34.576Z,101580.09
2022-09-25T10:46:12.684Z,101620.34
2022-09-25T10:48:58.768Z,101629.50
2022-09-25T10:51:25.968Z,101615.41
2022-09-25T10:54:11.328Z,101629.59
2022-09-25T10:56:38.869Z,101585.91
2022-09-25T10:59:23.071Z,101621.16
2022-09-25T11:01:54.737Z,101612.19
2022-09-25T11:04:28.232Z,101619.44
2022-09-25T11:07:00.446Z,101602.56
2022-09-25T11:09:28.757Z,101612.56
2022-09-25T11:12:11.903Z,101602.75
2022-09-25T11:14:40.862Z,101591.66
2022-09-25T11:17:29.748Z,101607.81
2022-09-25T11:20:19.156Z,101584.03
2022-09-25T11:22:59.090Z,101601.50
2022-09-25T11:25:40.580Z,101599.47
2022-09-25T11:28:15.117Z,101577.16
2022-09-25T11:30:54.455Z,101559.38
2022-09-25T11:33:29.901Z,101600.94
2022-09-25T11:36:20.396Z,101595.34
2022-09-25T11:39:07.446Z,101590.06
2022-09-25T11:42:18.527Z,101583.63
2022-09-25T11:45:08.698Z,101577.13
2022-09-25T11:47:52.614Z,101579.72
2022-09-25T11:50:20.325Z,101580.75
2022-09-25T11:52:54.063Z,101579.81
2022-09-25T11:55:42.829Z,101578.66
2022-09-25T11:58:23.054Z,101583.72
2022-09-25T12:01:34.627Z,101581.31
2022-09-25T12:04:27.531Z,101582.69
2022-09-25T12:07:15.817Z,101581.25
2022-09-25T12:09:54.528Z,101556.25
2022-09-25T12:12:41.427Z,101591.34
2022-09-25T12:15:17.156Z,101570.88
2022-09-25T12:18:02.052Z,101581.88
2022-09-25T12:20:36.160Z,101569.50
2022-09-25T12:23:17.346Z,101582.47
2022-09-25T12:26:37.589Z,101578.63
2022-09-25T12:29:28.167Z,101577.63
2022-09-25T12:32:14.045Z,101569.88
2022-09-25T12:35:18.864Z,101565.88
2022-09-25T12:37:49.900Z,101561.22
2022-09-25T12:40:23.458Z,101554.06
2022-09-25T12:42:56.633Z,101530.41
2022-09-25T12:45:43.005Z,101561.91
2022-09-25T12:48:24.769Z,101544.03
2022-09-25T12:51:05.635Z,101520.72
2022-09-25T12:53:54.890Z,101545.78
2022-09-25T12:56:27.774Z,101543.31
2022-09-25T12:59:36.022Z,101540.69
2022-09-25T13:02:11.643Z,101544.00
2022-09-25T13:04:56.610Z,101514.34
2022-09-25T13:07:29.240Z,101547.97
2022-09-25T13:09:55.635Z,101519.88
2022-09-25T13:12:35.671Z,101529.91
2022-09-25T13:15:18.713Z,101540.41
2022-09-25T13:17:45.170Z,101531.34
2022-09-25T13:20:26.821Z,101537.19
2022-09-25T13:23:26.093Z,101534.88
2022-09-25T13:26:01.961Z,101520.91
2022-09-25T13:28:32.528Z,101530.78
2022-09-25T13:31:09.649Z,101503.09
2022-09-25T13:33:38.299Z,101516.00
2022-09-25T13:36:23.067Z,101512.94
2022-09-25T13:39:12.528Z,101503.13
2022-09-25T13:41:57.746Z,101502.06
2022-09-25T13:44:43.021Z,101515.38
2022-09-25T13:47:24.802Z,101520.72
2022-09-25T13:50:00.346Z,101521.13
2022-09-25T13:52:36.045Z,101528.13
2022-09-25T13:55:08.545Z,101520.63
2022-09-25T13:57:59.989Z,101513.59
2022-09-25T14:00:55.754Z,101514.97
2022-09-25T14:03:46.334Z,101497.44
2022-09-25T14:06:30.560Z,101515.69
2022-09-25T14:08:59.230Z,101494.72
2022-09-25T14:11:30.027Z,101485.00
2022-09-25T14:13:56.599Z,101466.19
2022-09-25T14:16:25.671Z,101491.53
2022-09-25T14:18:55.307Z,101471.91
2022-09-25T14:21:22.073Z,101438.94
2022-09-25T14:23:50.710Z,101470.47
2022-09-25T14:26:25.393Z,101479.53
2022-09-25T14:28:53.721Z,101473.88
2022-09-25T14:31:32.595Z,101463.41
2022-09-25T14:34:29.719Z,101454.59
2022-09-25T14:37:18.313Z,101446.41
2022-09-25T14:40:04.046Z,101456.91
2022-09-25T14:42:52.922Z,101453.53
2022-09-25T14:45:48.265Z,101443.69
2022-09-25T14:48:17.505Z,101451.53
2022-09-25T14:50:49.518Z,101451.72
2022-09-25T14:53:23.772Z,101438.00
2022-09-25T14:55:52.884Z,101437.25
2022-09-25T14:58:24.699Z,101448.41
2022-09-25T15:00:53.358Z,101433.16
2022-09-25T15:03:26.429Z,101425.09
2022-09-25T15:05:52.957Z,101442.53
2022-09-25T15:08:36.054Z,101437.53
2022-09-25T15:11:10.538Z,101456.75
2022-09-25T15:13:36.973Z,101421.47
2022-09-25T15:16:22.721Z,101449.94
2022-09-25T15:18:54.124Z,101455.34
2022-09-25T15:21:27.049Z,101442.59
2022-09-25T15:23:54.918Z,101434.38
2022-09-25T15:26:21.634Z,101432.06
2022-09-25T15:28:48.345Z,101445.25
2022-09-25T15:31:14.826Z,101424.97
2022-09-25T15:33:41.653Z,101426.78
2022-09-25T15:36:24.156Z,101428.31
2022-09-25T15:38:55.343Z,101422.03
2022-09-25T15:41:22.743Z,101438.56
2022-09-25T15:43:51.191Z,101432.63
2022-09-25T15:46:35.822Z,101451.13
2022-09-25T15:49:02.475Z,101439.06
2022-09-25T15:51:32.087Z,101436.13
2022-09-25T15:54:00.593Z,101435.56
2022-09-25T15:56:32.989Z,101446.78
2022-09-25T16:00:13.572Z,101450.22
2022-09-25T16:03:05.905Z,101425.56
2022-09-25T16:05:35.352Z,101443.25
2022-09-25T16:08:23.810Z,101453.19
2022-09-25T16:11:09.181Z,101432.16
2022-09-25T16:13:38.645Z,101425.75
2022-09-25T16:16:05.304Z,101439.59
2022-09-25T16:18:42.346Z,101442.59
2022-09-25T16:21:21.892Z,101444.31
2022-09-25T16:23:56.112Z,101417.28
2022-09-25T16:26:24.224Z,101407.78
2022-09-25T16:28:58.434Z,101428.97
2022-09-25T16:31:25.038Z,101389.41
2022-09-25T16:33:54.389Z,101423.47
2022-09-25T16:36:21.201Z,101412.31
2022-09-25T16:39:12.396Z,101434.72
2022-09-25T16:41:43.094Z,101433.19
2022-09-25T16:44:21.486Z,101441.22
2022-09-25T16:47:00.057Z,101433.63
2022-09-25T16:49:26.508Z,101419.13
2022-09-25T16:51:54.295Z,101418.28
2022-09-25T16:54:21.684Z,101401.97
2022-09-25T16:56:48.973Z,101424.69
2022-09-25T16:59:19.562Z,101419.88
2022-09-25T17:01:46.868Z,101407.59
2022-09-25T17:04:15.629Z,101397.97
2022-09-25T17:06:47.320Z,101394.00
2022-09-25T17:09:14.831Z,101406.56
2022-09-25T17:11:44.437Z,101389.53
2022-09-25T17:14:26.867Z,101397.25
2022-09-25T17:16:54.601Z,101395.63
2022-09-25T17:19:21.545Z,101401.34
2022-09-25T17:21:52.993Z,101395.03
2022-09-25T17:24:23.714Z,101395.72
2022-09-25T17:26:51.806Z,101368.44
2022-09-25T17:29:19.065Z,101365.53
2022-09-25T17:31:45.572Z,101386.22
2022-09-25T17:34:24.973Z,101357.47
2022-09-25T17:36:51.909Z,101372.25
2022-09-25T17:39:18.302Z,101356.69
2022-09-25T17:41:44.734Z,101366.91
2022-09-25T17:44:18.465Z,101368.03
2022-09-25T17:46:45.057Z,101356.19
2022-09-25T17:49:11.608Z,101358.81
2022-09-25T17:51:38.260Z,101372.16
2022-09-25T17:54:06.392Z,101362.78
2022-09-25T17:56:34.670Z,101347.22
2022-09-25T17:59:02.178Z,101350.75
2022-09-25T18:01:36.705Z,101386.56
2022-09-25T18:04:31.756Z,101388.88
2022-09-25T18:06:58.389Z,101364.28
2022-09-25T18:09:24.765Z,101370.78
2022-09-25T18:11:51.429Z,101371.59
2022-09-25T18:14:17.853Z,101358.75
2022-09-25T18:16:44.861Z,101371.94
2022-09-25T18:19:38.051Z,101353.28
2022-09-25T18:22:17.461Z,101369.84
2022-09-25T18:24:43.885Z,101333.78
2022-09-25T18:27:10.393Z,101347.25
2022-09-25T18:29:37.293Z,101341.56
2022-09-25T18:32:04.104Z,101339.13
2022-09-25T18:34:30.514Z,101345.13
2022-09-25T18:36:56.891Z,101305.59
2022-09-25T18:39:23.429Z,101342.34
2022-09-25T18:41:50.388Z,101326.75
2022-09-25T18:44:19.336Z,101319.91
2022-09-25T18:46:45.777Z,101325.13
2022-09-25T18:49:12.382Z,101319.59
2022-09-25T18:51:39.869Z,101304.78
2022-09-25T18:54:06.279Z,101288.81
2022-09-25T18:56:34.515Z,101277.16
2022-09-25T18:59:05.373Z,101318.09
2022-09-25T19:01:32.124Z,101295.19
2022-09-25T19:03:58.596Z,101298.75
2022-09-25T19:06:24.973Z,101265.91
2022-09-25T19:08:53.161Z,101273.22
2022-09-25T19:11:19.832Z,101307.16
2022-09-25T19:13:46.330Z,101301.16
2022-09-25T19:16:14.112Z,101288.78
2022-09-25T19:18:40.527Z,101283.28
2022-09-25T19:21:07.047Z,101282.44
2022-09-25T19:23:35.331Z,101289.72
2022-09-25T19:26:03.656Z,101286.19
2022-09-25T19:28:32.092Z,101278.72
2022-09-25T19:31:04.230Z,101262.50
2022-09-25T19:33:35.883Z,101297.13
2022-09-25T19:36:06.350Z,101284.78
2022-09-25T19:38:34.376Z,101288.81
2022-09-25T19:41:01.482Z,101283.81
2022-09-25T19:43:28.024Z,101281.53
2022-09-25T19:45:55.878Z,101277.31
2022-09-25T19:48:23.771Z,101267.56
2022-09-25T19:50:50.275Z,101265.16
2022-09-25T19:53:18.699Z,101279.59
2022-09-25T19:55:54.005Z,101272.78
2022-09-25T19:58:23.617Z,101259.31
2022-09-25T20:00:50.634Z,101258.66
2022-09-25T20:03:17.623Z,101256.22
2022-09-25T20:05:44.563Z,101250.22
2022-09-25T20:08:11.482Z,101265.66
2022-09-25T20:10:38.105Z,101215.94
2022-09-25T20:13:06.100Z,101244.38
2022-09-25T20:15:33.641Z,101252.97
2022-09-25T20:18:00.287Z,101230.91
2022-09-25T20:20:29.237Z,101245.16
2022-09-25T20:22:56.539Z,101241.13
2022-09-25T20:25:23.373Z,101239.97
2022-09-25T20:27:50.603Z,101232.31
2022-09-25T20:30:17.029Z,101214.47
2022-09-25T20:32:43.600Z,101216.72
2022-09-25T20:35:10.188Z,101208.91
2022-09-25T20:37:36.699Z,101204.53
2022-09-25T20:40:03.592Z,101221.91
2022-09-25T20:42:30.081Z,101217.34
2022-09-25T20:44:56.460Z,101203.22
2022-09-25T20:47:22.810Z,101201.78
2022-09-25T20:49:49.361Z,101195.28
2022-09-25T20:52:15.731Z,101213.50
2022-09-25T20:54:42.298Z,101193.03
2022-09-25T20:57:09.192Z,101214.78
2022-09-25T20:59:36.440Z,101199.03
2022-09-25T21:02:04.911Z,101162.31
2022-09-25T21:04:31.968Z,101195.13
2022-09-25T21:06:58.485Z,101195.16
2022-09-25T21:09:26.315Z,101157.44
2022-09-25T21:11:53.560Z,101186.53
2022-09-25T21:14:25.067Z,101204.41
2022-09-25T21:16:56.233Z,101179.53
2022-09-25T21:19:23.424Z,101189.13
2022-09-25T21:21:50.425Z,101181.31
2022-09-25T21:24:19.531Z,101196.59
2022-09-25T21:26:46.303Z,101165.09
2022-09-25T21:29:15.602Z,101183.91
2022-09-25T21:31:48.960Z,101173.53
2022-09-25T21:34:16.058Z,101172.38
2022-09-25T21:36:43.451Z,101179.53
2022-09-25T21:39:09.914Z,101159.38
2022-09-25T21:41:36.804Z,101173.03
2022-09-25T21:44:06.632Z,101165.41
2022-09-25T21:46:33.199Z,101163.94
2022-09-25T21:49:05.668Z,101160.22
2022-09-25T21:51:37.700Z,101148.16
2022-09-25T21:54:05.637Z,101145.06
2022-09-25T21:56:32.061Z,101134.81
2022-09-25T21:59:00.219Z,101141.66
2022-09-25T22:01:28.875Z,101143.13
2022-09-25T22:03:57.094Z,101136.47
2022-09-25T22:06:26.229Z,101098.66
2022-09-25T22:08:55.884Z,101130.47
2022-09-25T22:11:22.739Z,101115.69
2022-09-25T22:13:50.390Z,101117.78
2022-09-25T22:16:19.925Z,101126.69
2022-09-25T22:18:58.084Z,101118.38
2022-09-25T22:21:27.529Z,101101.34
2022-09-25T22:23:54.049Z,101108.66
2022-09-25T22:26:21.025Z,101097.94
2022-09-25T22:28:47.845Z,101093.53
2022-09-25T22:31:16.982Z,101090.47
2022-09-25T22:33:44.345Z,101092.59
2022-09-25T22:36:11.485Z,101088.66
2022-09-25T22:38:38.526Z,101083.94
2022-09-25T22:41:06.784Z,101084.09
2022-09-25T22:43:33.314Z,101080.03
2022-09-25T22:46:00.081Z,101054.38
2022-09-25T22:48:26.879Z,101073.00
2022-09-25T22:50:54.330Z,101063.28
2022-09-25T22:53:21.682Z,101037.34
2022-09-25T22:55:48.245Z,101030.38
2022-09-25T22:58:15.682Z,101015.09
2022-09-25T23:00:43.616Z,101041.22
2022-09-25T23:03:10.685Z,101036.97
2022-09-25T23:05:38.052Z,101027.56
2022-09-25T23:08:05.584Z,101004.06
2022-09-25T23:10:55.167Z,101020.94
2022-09-25T23:13:21.054Z,101000.19
2022-09-25T23:15:47.478Z,101003.22
2022-09-25T23:18:13.944Z,101002.38
2022-09-25T23:20:40.307Z,100996.38
2022-09-25T23:23:06.676Z,100981.47
2022-09-25T23:25:33.969Z,100995.53
2022-09-25T23:28:01.543Z,100989.03
2022-09-25T23:30:28.177Z,100952.56
2022-09-25T23:32:54.648Z,100977.53
2022-09-25T23:35:21.007Z,100956.91
2022-09-25T23:37:47.432Z,100961.41
2022-09-25T23:40:15.788Z,100935.63
2022-09-25T23:42:43.269Z,100957.63
2022-09-25T23:45:11.829Z,100946.63
2022-09-25T23:47:38.240Z,100950.66
2022-09-25T23:50:05.143Z,100912.06
2022-09-25T23:52:31.580Z,100938.13
2022-09-25T23:54:59.281Z,100918.84
2022-09-25T23:57:25.664Z,100920.00
2022-09-25T23:59:52.037Z,100926.94
